sensor_id;sensor_type;location;lat;lon;timestamp;P1;durP1;ratioP1;P2;durP2;ratioP2
20417;SDS011;10368;51.436;6.774;2023-01-16T00:02:00;13.87;;;7.60;;
20417;SDS011;10368;51.436;6.774;2023-01-16T00:04:27;7.13;;;2.50;;
20417;SDS011;10368;51.436;6.774;2023-01-16T00:06:55;5.57;;;1.80;;
20417;SDS011;10368;51.436;6.774;2023-01-16T00:09:22;4.33;;;1.63;;
20417;SDS011;10368;51.436;6.774;2023-01-16T00:11:49;3.93;;;1.30;;
20417;SDS011;10368;51.436;6.774;2023-01-16T00:14:16;3.80;;;1.17;;
20417;SDS011;10368;51.436;6.774;2023-01-16T00:16:43;2.10;;;1.10;;
20417;SDS011;10368;51.436;6.774;2023-01-16T00:19:10;4.67;;;1.43;;
20417;SDS011;10368;51.436;6.774;2023-01-16T00:21:38;5.47;;;2.07;;
20417;SDS011;10368;51.436;6.774;2023-01-16T00:24:05;3.30;;;1.97;;
20417;SDS011;10368;51.436;6.774;2023-01-16T00:26:32;5.07;;;2.40;;
20417;SDS011;10368;51.436;6.774;2023-01-16T00:28:59;4.93;;;2.00;;
20417;SDS011;10368;51.436;6.774;2023-01-16T00:31:28;4.17;;;1.93;;
20417;SDS011;10368;51.436;6.774;2023-01-16T00:33:55;5.53;;;2.60;;
20417;SDS011;10368;51.436;6.774;2023-01-16T00:36:22;5.77;;;2.43;;
20417;SDS011;10368;51.436;6.774;2023-01-16T00:38:49;7.07;;;2.60;;
20417;SDS011;10368;51.436;6.774;2023-01-16T00:41:16;6.50;;;2.33;;
20417;SDS011;10368;51.436;6.774;2023-01-16T00:43:43;5.57;;;1.80;;
20417;SDS011;10368;51.436;6.774;2023-01-16T00:46:11;4.87;;;1.77;;
20417;SDS011;10368;51.436;6.774;2023-01-16T00:48:38;4.20;;;1.90;;
20417;SDS011;10368;51.436;6.774;2023-01-16T00:51:05;3.63;;;1.63;;
20417;SDS011;10368;51.436;6.774;2023-01-16T00:53:32;4.10;;;1.90;;
20417;SDS011;10368;51.436;6.774;2023-01-16T00:55:59;2.83;;;1.40;;
20417;SDS011;10368;51.436;6.774;2023-01-16T00:58:27;2.07;;;1.53;;
20417;SDS011;10368;51.436;6.774;2023-01-16T01:00:54;3.07;;;1.10;;
20417;SDS011;10368;51.436;6.774;2023-01-16T01:03:21;4.37;;;1.73;;
20417;SDS011;10368;51.436;6.774;2023-01-16T01:05:48;5.00;;;1.40;;
20417;SDS011;10368;51.436;6.774;2023-01-16T01:08:15;2.33;;;0.90;;
20417;SDS011;10368;51.436;6.774;2023-01-16T01:10:43;5.20;;;1.13;;
20417;SDS011;10368;51.436;6.774;2023-01-16T01:13:10;2.20;;;0.87;;
20417;SDS011;10368;51.436;6.774;2023-01-16T01:15:37;3.07;;;0.97;;
20417;SDS011;10368;51.436;6.774;2023-01-16T01:18:04;2.77;;;1.00;;
20417;SDS011;10368;51.436;6.774;2023-01-16T01:20:32;2.03;;;1.10;;
20417;SDS011;10368;51.436;6.774;2023-01-16T01:22:59;3.77;;;1.10;;
20417;SDS011;10368;51.436;6.774;2023-01-16T01:25:26;3.60;;;1.23;;
20417;SDS011;10368;51.436;6.774;2023-01-16T01:27:53;3.07;;;0.97;;
20417;SDS011;10368;51.436;6.774;2023-01-16T01:30:21;1.70;;;1.00;;
20417;SDS011;10368;51.436;6.774;2023-01-16T01:32:48;9.33;;;1.10;;
20417;SDS011;10368;51.436;6.774;2023-01-16T01:35:15;2.53;;;1.10;;
20417;SDS011;10368;51.436;6.774;2023-01-16T01:37:44;7.23;;;1.20;;
20417;SDS011;10368;51.436;6.774;2023-01-16T01:40:11;2.63;;;1.10;;
20417;SDS011;10368;51.436;6.774;2023-01-16T01:42:39;6.03;;;1.63;;
20417;SDS011;10368;51.436;6.774;2023-01-16T01:45:26;4.07;;;1.30;;
20417;SDS011;10368;51.436;6.774;2023-01-16T01:48:01;7.77;;;1.40;;
20417;SDS011;10368;51.436;6.774;2023-01-16T01:53:13;1.60;;;1.00;;
20417;SDS011;10368;51.436;6.774;2023-01-16T01:55:42;6.57;;;1.57;;
20417;SDS011;10368;51.436;6.774;2023-01-16T01:58:11;1.60;;;1.10;;
20417;SDS011;10368;51.436;6.774;2023-01-16T02:00:42;5.23;;;1.10;;
20417;SDS011;10368;51.436;6.774;2023-01-16T02:03:10;4.17;;;0.87;;
20417;SDS011;10368;51.436;6.774;2023-01-16T02:05:41;9.17;;;1.40;;
20417;SDS011;10368;51.436;6.774;2023-01-16T02:08:18;5.10;;;2.00;;
20417;SDS011;10368;51.436;6.774;2023-01-16T02:10:50;2.53;;;1.40;;
20417;SDS011;10368;51.436;6.774;2023-01-16T02:13:19;4.90;;;1.40;;
20417;SDS011;10368;51.436;6.774;2023-01-16T02:15:46;3.90;;;1.10;;
20417;SDS011;10368;51.436;6.774;2023-01-16T02:18:32;7.83;;;1.30;;
20417;SDS011;10368;51.436;6.774;2023-01-16T02:28:50;4.10;;;1.03;;
20417;SDS011;10368;51.436;6.774;2023-01-16T02:31:35;3.47;;;1.50;;
20417;SDS011;10368;51.436;6.774;2023-01-16T02:34:17;3.87;;;1.53;;
20417;SDS011;10368;51.436;6.774;2023-01-16T02:41:55;3.23;;;1.10;;
20417;SDS011;10368;51.436;6.774;2023-01-16T02:49:59;1.17;;;0.83;;
20417;SDS011;10368;51.436;6.774;2023-01-16T02:55:03;2.53;;;1.20;;
20417;SDS011;10368;51.436;6.774;2023-01-16T02:57:37;1.90;;;0.80;;
20417;SDS011;10368;51.436;6.774;2023-01-16T03:00:05;1.60;;;0.90;;
20417;SDS011;10368;51.436;6.774;2023-01-16T03:02:33;6.63;;;1.20;;
20417;SDS011;10368;51.436;6.774;2023-01-16T03:05:00;2.00;;;0.90;;
20417;SDS011;10368;51.436;6.774;2023-01-16T03:31:09;5.20;;;1.30;;
20417;SDS011;10368;51.436;6.774;2023-01-16T03:38:56;3.03;;;1.27;;
20417;SDS011;10368;51.436;6.774;2023-01-16T03:41:24;3.03;;;1.00;;
20417;SDS011;10368;51.436;6.774;2023-01-16T03:43:55;2.70;;;1.00;;
20417;SDS011;10368;51.436;6.774;2023-01-16T03:46:25;2.07;;;1.10;;
20417;SDS011;10368;51.436;6.774;2023-01-16T03:48:55;1.33;;;0.90;;
20417;SDS011;10368;51.436;6.774;2023-01-16T03:51:27;1.80;;;1.10;;
20417;SDS011;10368;51.436;6.774;2023-01-16T03:57:16;2.30;;;1.13;;
20417;SDS011;10368;51.436;6.774;2023-01-16T03:59:36;2.47;;;1.10;;
20417;SDS011;10368;51.436;6.774;2023-01-16T04:02:14;1.83;;;1.43;;
20417;SDS011;10368;51.436;6.774;2023-01-16T04:07:24;3.10;;;1.13;;
20417;SDS011;10368;51.436;6.774;2023-01-16T04:09:55;2.10;;;1.23;;
20417;SDS011;10368;51.436;6.774;2023-01-16T04:12:25;2.20;;;1.10;;
20417;SDS011;10368;51.436;6.774;2023-01-16T04:14:57;1.43;;;0.90;;
20417;SDS011;10368;51.436;6.774;2023-01-16T04:17:25;3.17;;;1.70;;
20417;SDS011;10368;51.436;6.774;2023-01-16T04:19:53;6.50;;;3.63;;
20417;SDS011;10368;51.436;6.774;2023-01-16T04:22:22;2.43;;;1.30;;
20417;SDS011;10368;51.436;6.774;2023-01-16T04:24:49;2.30;;;1.57;;
20417;SDS011;10368;51.436;6.774;2023-01-16T04:27:18;4.53;;;2.17;;
20417;SDS011;10368;51.436;6.774;2023-01-16T04:29:45;0.97;;;0.87;;
20417;SDS011;10368;51.436;6.774;2023-01-16T04:32:13;1.83;;;0.67;;
20417;SDS011;10368;51.436;6.774;2023-01-16T04:34:40;1.63;;;0.83;;
20417;SDS011;10368;51.436;6.774;2023-01-16T04:37:08;1.60;;;0.77;;
20417;SDS011;10368;51.436;6.774;2023-01-16T04:39:35;1.27;;;0.70;;
20417;SDS011;10368;51.436;6.774;2023-01-16T04:42:03;0.60;;;0.40;;
20417;SDS011;10368;51.436;6.774;2023-01-16T04:44:30;0.80;;;0.73;;
20417;SDS011;10368;51.436;6.774;2023-01-16T04:46:58;2.50;;;0.77;;
20417;SDS011;10368;51.436;6.774;2023-01-16T04:49:25;2.00;;;0.80;;
20417;SDS011;10368;51.436;6.774;2023-01-16T04:51:52;1.03;;;0.50;;
20417;SDS011;10368;51.436;6.774;2023-01-16T04:54:19;0.57;;;0.57;;
20417;SDS011;10368;51.436;6.774;2023-01-16T04:56:46;0.80;;;0.60;;
20417;SDS011;10368;51.436;6.774;2023-01-16T04:59:16;2.63;;;0.70;;
20417;SDS011;10368;51.436;6.774;2023-01-16T05:01:44;1.03;;;0.83;;
20417;SDS011;10368;51.436;6.774;2023-01-16T05:04:12;2.73;;;0.90;;
20417;SDS011;10368;51.436;6.774;2023-01-16T05:06:41;3.10;;;0.83;;
20417;SDS011;10368;51.436;6.774;2023-01-16T05:09:08;2.00;;;0.87;;
20417;SDS011;10368;51.436;6.774;2023-01-16T05:11:35;5.33;;;1.10;;
20417;SDS011;10368;51.436;6.774;2023-01-16T05:14:03;2.80;;;0.90;;
20417;SDS011;10368;51.436;6.774;2023-01-16T05:16:34;1.83;;;0.80;;
20417;SDS011;10368;51.436;6.774;2023-01-16T05:19:02;2.97;;;1.03;;
20417;SDS011;10368;51.436;6.774;2023-01-16T05:21:29;1.93;;;0.90;;
20417;SDS011;10368;51.436;6.774;2023-01-16T05:23:56;2.93;;;1.20;;
20417;SDS011;10368;51.436;6.774;2023-01-16T05:26:24;0.97;;;0.80;;
20417;SDS011;10368;51.436;6.774;2023-01-16T05:28:51;3.63;;;1.00;;
20417;SDS011;10368;51.436;6.774;2023-01-16T05:31:19;3.07;;;0.80;;
20417;SDS011;10368;51.436;6.774;2023-01-16T05:33:46;3.50;;;1.10;;
20417;SDS011;10368;51.436;6.774;2023-01-16T05:36:13;4.77;;;1.83;;
20417;SDS011;10368;51.436;6.774;2023-01-16T05:38:40;5.30;;;1.43;;
20417;SDS011;10368;51.436;6.774;2023-01-16T05:41:07;3.37;;;1.47;;
20417;SDS011;10368;51.436;6.774;2023-01-16T05:43:34;3.10;;;1.00;;
20417;SDS011;10368;51.436;6.774;2023-01-16T05:46:02;3.20;;;0.80;;
20417;SDS011;10368;51.436;6.774;2023-01-16T05:48:29;1.27;;;0.90;;
20417;SDS011;10368;51.436;6.774;2023-01-16T05:51:02;1.23;;;0.77;;
20417;SDS011;10368;51.436;6.774;2023-01-16T05:53:29;3.83;;;1.47;;
20417;SDS011;10368;51.436;6.774;2023-01-16T05:55:57;1.17;;;0.70;;
20417;SDS011;10368;51.436;6.774;2023-01-16T05:58:24;3.37;;;1.20;;
20417;SDS011;10368;51.436;6.774;2023-01-16T06:00:51;2.40;;;1.00;;
20417;SDS011;10368;51.436;6.774;2023-01-16T06:03:19;1.70;;;1.10;;
20417;SDS011;10368;51.436;6.774;2023-01-16T06:05:47;2.00;;;0.60;;
20417;SDS011;10368;51.436;6.774;2023-01-16T06:08:14;1.17;;;0.67;;
20417;SDS011;10368;51.436;6.774;2023-01-16T06:10:41;1.57;;;0.70;;
20417;SDS011;10368;51.436;6.774;2023-01-16T06:13:10;2.13;;;0.60;;
20417;SDS011;10368;51.436;6.774;2023-01-16T06:15:37;1.63;;;0.90;;
20417;SDS011;10368;51.436;6.774;2023-01-16T06:18:05;2.67;;;0.73;;
20417;SDS011;10368;51.436;6.774;2023-01-16T06:20:32;3.40;;;0.83;;
20417;SDS011;10368;51.436;6.774;2023-01-16T06:23:00;2.90;;;1.13;;
20417;SDS011;10368;51.436;6.774;2023-01-16T06:25:27;2.13;;;0.60;;
20417;SDS011;10368;51.436;6.774;2023-01-16T06:27:54;2.57;;;0.90;;
20417;SDS011;10368;51.436;6.774;2023-01-16T06:30:21;1.60;;;0.67;;
20417;SDS011;10368;51.436;6.774;2023-01-16T06:32:48;3.33;;;0.57;;
20417;SDS011;10368;51.436;6.774;2023-01-16T06:35:16;3.03;;;0.80;;
20417;SDS011;10368;51.436;6.774;2023-01-16T06:37:43;0.77;;;0.60;;
20417;SDS011;10368;51.436;6.774;2023-01-16T06:40:10;1.43;;;0.63;;
20417;SDS011;10368;51.436;6.774;2023-01-16T06:42:38;3.20;;;0.80;;
20417;SDS011;10368;51.436;6.774;2023-01-16T06:45:09;2.43;;;0.83;;
20417;SDS011;10368;51.436;6.774;2023-01-16T06:47:36;0.93;;;0.60;;
20417;SDS011;10368;51.436;6.774;2023-01-16T06:50:04;0.97;;;0.80;;
20417;SDS011;10368;51.436;6.774;2023-01-16T06:52:31;2.30;;;1.47;;
20417;SDS011;10368;51.436;6.774;2023-01-16T06:54:58;2.27;;;0.90;;
20417;SDS011;10368;51.436;6.774;2023-01-16T06:57:25;2.30;;;0.83;;
20417;SDS011;10368;51.436;6.774;2023-01-16T06:59:53;3.90;;;0.67;;
20417;SDS011;10368;51.436;6.774;2023-01-16T07:02:20;1.47;;;0.73;;
20417;SDS011;10368;51.436;6.774;2023-01-16T07:04:47;2.27;;;1.20;;
20417;SDS011;10368;51.436;6.774;2023-01-16T07:07:14;1.07;;;0.73;;
20417;SDS011;10368;51.436;6.774;2023-01-16T07:09:42;1.87;;;1.27;;
20417;SDS011;10368;51.436;6.774;2023-01-16T07:12:09;0.63;;;0.50;;
20417;SDS011;10368;51.436;6.774;2023-01-16T07:14:36;4.30;;;1.20;;
20417;SDS011;10368;51.436;6.774;2023-01-16T07:17:22;2.17;;;0.80;;
20417;SDS011;10368;51.436;6.774;2023-01-16T07:20:09;2.23;;;0.80;;
20417;SDS011;10368;51.436;6.774;2023-01-16T07:25:48;0.50;;;0.50;;
20417;SDS011;10368;51.436;6.774;2023-01-16T07:28:17;0.97;;;0.60;;
20417;SDS011;10368;51.436;6.774;2023-01-16T07:30:44;4.23;;;0.80;;
20417;SDS011;10368;51.436;6.774;2023-01-16T07:33:12;1.60;;;0.90;;
20417;SDS011;10368;51.436;6.774;2023-01-16T07:35:39;2.50;;;0.77;;
20417;SDS011;10368;51.436;6.774;2023-01-16T07:38:07;1.30;;;0.70;;
20417;SDS011;10368;51.436;6.774;2023-01-16T07:40:34;3.23;;;1.00;;
20417;SDS011;10368;51.436;6.774;2023-01-16T07:43:02;4.20;;;1.00;;
20417;SDS011;10368;51.436;6.774;2023-01-16T07:45:30;4.50;;;1.07;;
20417;SDS011;10368;51.436;6.774;2023-01-16T07:47:57;1.90;;;1.17;;
20417;SDS011;10368;51.436;6.774;2023-01-16T07:50:27;4.87;;;1.10;;
20417;SDS011;10368;51.436;6.774;2023-01-16T07:52:54;3.07;;;1.37;;
20417;SDS011;10368;51.436;6.774;2023-01-16T07:55:22;2.17;;;1.33;;
20417;SDS011;10368;51.436;6.774;2023-01-16T07:57:49;2.30;;;1.47;;
20417;SDS011;10368;51.436;6.774;2023-01-16T08:00:17;3.87;;;1.50;;
20417;SDS011;10368;51.436;6.774;2023-01-16T08:02:44;1.93;;;1.30;;
20417;SDS011;10368;51.436;6.774;2023-01-16T08:05:12;2.80;;;1.40;;
20417;SDS011;10368;51.436;6.774;2023-01-16T08:07:39;3.47;;;1.60;;
20417;SDS011;10368;51.436;6.774;2023-01-16T08:10:07;4.43;;;1.43;;
20417;SDS011;10368;51.436;6.774;2023-01-16T08:12:34;5.13;;;1.90;;
20417;SDS011;10368;51.436;6.774;2023-01-16T08:15:01;1.80;;;1.20;;
20417;SDS011;10368;51.436;6.774;2023-01-16T08:17:28;7.70;;;2.27;;
20417;SDS011;10368;51.436;6.774;2023-01-16T08:19:56;3.27;;;1.90;;
20417;SDS011;10368;51.436;6.774;2023-01-16T08:22:23;2.00;;;1.50;;
20417;SDS011;10368;51.436;6.774;2023-01-16T08:24:50;7.03;;;1.73;;
20417;SDS011;10368;51.436;6.774;2023-01-16T08:27:17;6.57;;;1.97;;
20417;SDS011;10368;51.436;6.774;2023-01-16T08:29:45;5.63;;;1.40;;
20417;SDS011;10368;51.436;6.774;2023-01-16T08:32:12;2.23;;;1.20;;
20417;SDS011;10368;51.436;6.774;2023-01-16T08:34:40;1.93;;;1.40;;
20417;SDS011;10368;51.436;6.774;2023-01-16T08:37:08;2.77;;;1.40;;
20417;SDS011;10368;51.436;6.774;2023-01-16T08:39:36;3.50;;;1.10;;
20417;SDS011;10368;51.436;6.774;2023-01-16T08:42:03;3.60;;;1.80;;
20417;SDS011;10368;51.436;6.774;2023-01-16T08:44:49;3.87;;;1.30;;
20417;SDS011;10368;51.436;6.774;2023-01-16T08:47:35;3.63;;;1.03;;
20417;SDS011;10368;51.436;6.774;2023-01-16T08:50:22;2.07;;;1.00;;
20417;SDS011;10368;51.436;6.774;2023-01-16T08:53:08;2.13;;;1.23;;
20417;SDS011;10368;51.436;6.774;2023-01-16T08:55:38;3.43;;;1.30;;
20417;SDS011;10368;51.436;6.774;2023-01-16T08:58:05;3.63;;;1.67;;
20417;SDS011;10368;51.436;6.774;2023-01-16T09:00:33;3.90;;;1.00;;
20417;SDS011;10368;51.436;6.774;2023-01-16T09:03:01;3.97;;;1.27;;
20417;SDS011;10368;51.436;6.774;2023-01-16T09:05:28;3.90;;;0.87;;
20417;SDS011;10368;51.436;6.774;2023-01-16T09:07:55;5.93;;;1.40;;
20417;SDS011;10368;51.436;6.774;2023-01-16T09:10:22;3.53;;;1.17;;
20417;SDS011;10368;51.436;6.774;2023-01-16T09:12:50;3.30;;;1.00;;
20417;SDS011;10368;51.436;6.774;2023-01-16T09:15:36;1.53;;;0.93;;
20417;SDS011;10368;51.436;6.774;2023-01-16T09:18:03;2.13;;;1.00;;
20417;SDS011;10368;51.436;6.774;2023-01-16T09:20:30;3.43;;;2.00;;
20417;SDS011;10368;51.436;6.774;2023-01-16T09:23:01;4.93;;;2.50;;
20417;SDS011;10368;51.436;6.774;2023-01-16T09:25:28;1.77;;;0.93;;
20417;SDS011;10368;51.436;6.774;2023-01-16T09:27:56;3.03;;;1.40;;
20417;SDS011;10368;51.436;6.774;2023-01-16T09:30:24;4.80;;;1.00;;
20417;SDS011;10368;51.436;6.774;2023-01-16T09:32:51;7.50;;;3.73;;
20417;SDS011;10368;51.436;6.774;2023-01-16T09:35:18;3.87;;;1.87;;
20417;SDS011;10368;51.436;6.774;2023-01-16T09:37:45;2.40;;;1.00;;
20417;SDS011;10368;51.436;6.774;2023-01-16T09:40:17;2.30;;;0.83;;
20417;SDS011;10368;51.436;6.774;2023-01-16T09:45:43;14.10;;;8.47;;
20417;SDS011;10368;51.436;6.774;2023-01-16T09:48:18;1.27;;;0.87;;
20417;SDS011;10368;51.436;6.774;2023-01-16T09:50:52;1.10;;;0.80;;
20417;SDS011;10368;51.436;6.774;2023-01-16T09:53:23;1.90;;;1.20;;
20417;SDS011;10368;51.436;6.774;2023-01-16T09:56:13;0.90;;;0.63;;
20417;SDS011;10368;51.436;6.774;2023-01-16T09:59:02;0.83;;;0.80;;
20417;SDS011;10368;51.436;6.774;2023-01-16T10:01:31;1.93;;;0.73;;
20417;SDS011;10368;51.436;6.774;2023-01-16T10:04:04;2.40;;;0.70;;
20417;SDS011;10368;51.436;6.774;2023-01-16T10:06:37;1.10;;;0.63;;
20417;SDS011;10368;51.436;6.774;2023-01-16T10:11:39;1.50;;;1.20;;
20417;SDS011;10368;51.436;6.774;2023-01-16T10:19:17;1.07;;;0.70;;
20417;SDS011;10368;51.436;6.774;2023-01-16T10:27:00;4.20;;;0.90;;
20417;SDS011;10368;51.436;6.774;2023-01-16T10:32:08;1.20;;;0.60;;
20417;SDS011;10368;51.436;6.774;2023-01-16T10:34:46;4.27;;;0.73;;
20417;SDS011;10368;51.436;6.774;2023-01-16T10:37:16;4.43;;;2.23;;
20417;SDS011;10368;51.436;6.774;2023-01-16T10:39:43;3.10;;;2.43;;
20417;SDS011;10368;51.436;6.774;2023-01-16T10:45:25;1.87;;;0.90;;
20417;SDS011;10368;51.436;6.774;2023-01-16T10:48:13;0.90;;;0.80;;
20417;SDS011;10368;51.436;6.774;2023-01-16T10:50:59;3.27;;;0.80;;
20417;SDS011;10368;51.436;6.774;2023-01-16T10:53:27;0.67;;;0.50;;
20417;SDS011;10368;51.436;6.774;2023-01-16T10:55:55;2.03;;;0.53;;
20417;SDS011;10368;51.436;6.774;2023-01-16T10:58:32;1.27;;;0.53;;
20417;SDS011;10368;51.436;6.774;2023-01-16T11:03:42;1.37;;;0.60;;
20417;SDS011;10368;51.436;6.774;2023-01-16T11:08:41;3.27;;;0.70;;
20417;SDS011;10368;51.436;6.774;2023-01-16T11:11:10;1.80;;;0.60;;
20417;SDS011;10368;51.436;6.774;2023-01-16T11:14:00;0.60;;;0.60;;
20417;SDS011;10368;51.436;6.774;2023-01-16T11:16:49;0.63;;;0.63;;
20417;SDS011;10368;51.436;6.774;2023-01-16T11:19:42;2.10;;;0.70;;
20417;SDS011;10368;51.436;6.774;2023-01-16T11:22:24;2.77;;;0.67;;
20417;SDS011;10368;51.436;6.774;2023-01-16T11:24:57;1.10;;;0.70;;
20417;SDS011;10368;51.436;6.774;2023-01-16T11:27:26;1.60;;;0.67;;
20417;SDS011;10368;51.436;6.774;2023-01-16T11:29:54;0.60;;;0.50;;
20417;SDS011;10368;51.436;6.774;2023-01-16T11:32:25;0.50;;;0.50;;
20417;SDS011;10368;51.436;6.774;2023-01-16T11:34:55;1.97;;;0.70;;
20417;SDS011;10368;51.436;6.774;2023-01-16T11:37:23;1.70;;;0.97;;
20417;SDS011;10368;51.436;6.774;2023-01-16T11:39:53;1.63;;;1.00;;
20417;SDS011;10368;51.436;6.774;2023-01-16T11:42:24;1.40;;;0.80;;
20417;SDS011;10368;51.436;6.774;2023-01-16T11:45:13;2.13;;;0.50;;
20417;SDS011;10368;51.436;6.774;2023-01-16T11:48:00;0.73;;;0.60;;
20417;SDS011;10368;51.436;6.774;2023-01-16T11:50:48;1.50;;;0.70;;
20417;SDS011;10368;51.436;6.774;2023-01-16T11:53:16;0.90;;;0.60;;
20417;SDS011;10368;51.436;6.774;2023-01-16T11:55:58;2.37;;;0.60;;
20417;SDS011;10368;51.436;6.774;2023-01-16T11:58:41;1.80;;;0.57;;
20417;SDS011;10368;51.436;6.774;2023-01-16T12:11:48;1.13;;;0.60;;
20417;SDS011;10368;51.436;6.774;2023-01-16T12:16:59;1.73;;;0.70;;
20417;SDS011;10368;51.436;6.774;2023-01-16T12:42:25;0.80;;;0.60;;
20417;SDS011;10368;51.436;6.774;2023-01-16T12:55:41;1.93;;;1.10;;
20417;SDS011;10368;51.436;6.774;2023-01-16T12:58:29;2.27;;;1.40;;
20417;SDS011;10368;51.436;6.774;2023-01-16T13:01:16;2.93;;;1.63;;
20417;SDS011;10368;51.436;6.774;2023-01-16T13:03:45;2.33;;;1.60;;
20417;SDS011;10368;51.436;6.774;2023-01-16T13:06:15;1.50;;;1.30;;
20417;SDS011;10368;51.436;6.774;2023-01-16T13:08:48;1.00;;;0.83;;
20417;SDS011;10368;51.436;6.774;2023-01-16T13:11:38;1.90;;;0.87;;
20417;SDS011;10368;51.436;6.774;2023-01-16T13:14:31;1.33;;;0.80;;
20417;SDS011;10368;51.436;6.774;2023-01-16T13:17:06;1.77;;;1.37;;
20417;SDS011;10368;51.436;6.774;2023-01-16T13:19:37;1.63;;;0.80;;
20417;SDS011;10368;51.436;6.774;2023-01-16T13:22:06;4.33;;;0.90;;
20417;SDS011;10368;51.436;6.774;2023-01-16T13:24:46;0.90;;;0.80;;
20417;SDS011;10368;51.436;6.774;2023-01-16T13:27:15;1.90;;;1.17;;
20417;SDS011;10368;51.436;6.774;2023-01-16T13:29:48;5.57;;;1.77;;
20417;SDS011;10368;51.436;6.774;2023-01-16T13:34:51;3.00;;;2.10;;
20417;SDS011;10368;51.436;6.774;2023-01-16T13:42:23;0.90;;;0.90;;
20417;SDS011;10368;51.436;6.774;2023-01-16T13:44:58;0.70;;;0.70;;
20417;SDS011;10368;51.436;6.774;2023-01-16T13:47:44;0.70;;;0.70;;
20417;SDS011;10368;51.436;6.774;2023-01-16T13:52:45;3.33;;;1.13;;
20417;SDS011;10368;51.436;6.774;2023-01-16T13:55:32;2.87;;;0.80;;
20417;SDS011;10368;51.436;6.774;2023-01-16T13:58:10;0.60;;;0.60;;
20417;SDS011;10368;51.436;6.774;2023-01-16T14:00:40;1.97;;;0.80;;
20417;SDS011;10368;51.436;6.774;2023-01-16T14:05:51;1.97;;;0.97;;
20417;SDS011;10368;51.436;6.774;2023-01-16T14:11:14;2.90;;;0.93;;
20417;SDS011;10368;51.436;6.774;2023-01-16T14:13:42;3.53;;;2.00;;
20417;SDS011;10368;51.436;6.774;2023-01-16T14:21:41;2.40;;;1.60;;
20417;SDS011;10368;51.436;6.774;2023-01-16T14:24:43;2.33;;;1.00;;
20417;SDS011;10368;51.436;6.774;2023-01-16T14:27:12;1.47;;;1.10;;
20417;SDS011;10368;51.436;6.774;2023-01-16T14:30:14;1.90;;;0.77;;
20417;SDS011;10368;51.436;6.774;2023-01-16T14:32:33;1.03;;;1.00;;
20417;SDS011;10368;51.436;6.774;2023-01-16T14:37:36;1.33;;;0.90;;
20417;SDS011;10368;51.436;6.774;2023-01-16T14:42:39;1.10;;;0.80;;
20417;SDS011;10368;51.436;6.774;2023-01-16T14:53:56;1.40;;;0.90;;
20417;SDS011;10368;51.436;6.774;2023-01-16T14:56:42;0.70;;;0.70;;
20417;SDS011;10368;51.436;6.774;2023-01-16T15:04:35;1.43;;;1.07;;
20417;SDS011;10368;51.436;6.774;2023-01-16T15:07:05;1.40;;;0.80;;
20417;SDS011;10368;51.436;6.774;2023-01-16T15:09:33;1.77;;;0.90;;
20417;SDS011;10368;51.436;6.774;2023-01-16T15:12:14;0.80;;;0.80;;
20417;SDS011;10368;51.436;6.774;2023-01-16T15:14:53;2.40;;;0.63;;
20417;SDS011;10368;51.436;6.774;2023-01-16T15:17:26;0.80;;;0.70;;
20417;SDS011;10368;51.436;6.774;2023-01-16T15:20:15;1.03;;;0.77;;
20417;SDS011;10368;51.436;6.774;2023-01-16T15:23:02;2.77;;;0.93;;
20417;SDS011;10368;51.436;6.774;2023-01-16T15:30:34;1.83;;;1.17;;
20417;SDS011;10368;51.436;6.774;2023-01-16T15:33:03;0.80;;;0.80;;
20417;SDS011;10368;51.436;6.774;2023-01-16T15:35:56;0.90;;;0.90;;
20417;SDS011;10368;51.436;6.774;2023-01-16T15:38:24;2.63;;;0.93;;
20417;SDS011;10368;51.436;6.774;2023-01-16T15:40:52;0.80;;;0.80;;
20417;SDS011;10368;51.436;6.774;2023-01-16T15:43:22;1.40;;;1.00;;
20417;SDS011;10368;51.436;6.774;2023-01-16T15:46:12;1.73;;;0.90;;
20417;SDS011;10368;51.436;6.774;2023-01-16T15:51:51;1.00;;;0.90;;
20417;SDS011;10368;51.436;6.774;2023-01-16T15:54:18;1.17;;;0.97;;
20417;SDS011;10368;51.436;6.774;2023-01-16T15:56:46;2.20;;;1.30;;
20417;SDS011;10368;51.436;6.774;2023-01-16T15:59:22;1.37;;;1.07;;
20417;SDS011;10368;51.436;6.774;2023-01-16T16:01:50;2.10;;;0.97;;
20417;SDS011;10368;51.436;6.774;2023-01-16T16:04:17;1.07;;;0.93;;
20417;SDS011;10368;51.436;6.774;2023-01-16T16:06:46;5.87;;;3.90;;
20417;SDS011;10368;51.436;6.774;2023-01-16T16:09:16;2.50;;;1.10;;
20417;SDS011;10368;51.436;6.774;2023-01-16T16:11:44;5.28;;;3.40;;
20417;SDS011;10368;51.436;6.774;2023-01-16T16:17:29;5.50;;;2.53;;
20417;SDS011;10368;51.436;6.774;2023-01-16T16:20:22;1.67;;;1.00;;
20417;SDS011;10368;51.436;6.774;2023-01-16T16:22:50;4.13;;;1.40;;
20417;SDS011;10368;51.436;6.774;2023-01-16T16:25:31;1.47;;;1.27;;
20417;SDS011;10368;51.436;6.774;2023-01-16T16:27:59;1.50;;;1.10;;
20417;SDS011;10368;51.436;6.774;2023-01-16T16:30:27;1.00;;;0.90;;
20417;SDS011;10368;51.436;6.774;2023-01-16T16:32:55;1.27;;;1.10;;
20417;SDS011;10368;51.436;6.774;2023-01-16T16:35:31;2.30;;;1.40;;
20417;SDS011;10368;51.436;6.774;2023-01-16T16:37:59;3.20;;;1.67;;
20417;SDS011;10368;51.436;6.774;2023-01-16T16:40:27;2.20;;;2.00;;
20417;SDS011;10368;51.436;6.774;2023-01-16T16:42:55;1.40;;;1.30;;
20417;SDS011;10368;51.436;6.774;2023-01-16T16:45:26;3.00;;;2.37;;
20417;SDS011;10368;51.436;6.774;2023-01-16T16:50:42;2.30;;;1.30;;
20417;SDS011;10368;51.436;6.774;2023-01-16T16:55:39;2.27;;;1.60;;
20417;SDS011;10368;51.436;6.774;2023-01-16T17:00:43;1.87;;;1.10;;
20417;SDS011;10368;51.436;6.774;2023-01-16T17:05:38;3.43;;;1.30;;
20417;SDS011;10368;51.436;6.774;2023-01-16T17:08:06;1.97;;;1.40;;
20417;SDS011;10368;51.436;6.774;2023-01-16T17:10:33;4.97;;;2.23;;
20417;SDS011;10368;51.436;6.774;2023-01-16T17:13:00;2.67;;;1.73;;
20417;SDS011;10368;51.436;6.774;2023-01-16T17:15:28;1.43;;;1.30;;
20417;SDS011;10368;51.436;6.774;2023-01-16T17:17:55;3.20;;;2.10;;
20417;SDS011;10368;51.436;6.774;2023-01-16T17:20:25;4.03;;;1.67;;
20417;SDS011;10368;51.436;6.774;2023-01-16T17:22:52;4.87;;;3.10;;
20417;SDS011;10368;51.436;6.774;2023-01-16T17:25:20;4.60;;;2.23;;
20417;SDS011;10368;51.436;6.774;2023-01-16T17:27:48;2.67;;;1.83;;
20417;SDS011;10368;51.436;6.774;2023-01-16T17:30:16;2.07;;;1.87;;
20417;SDS011;10368;51.436;6.774;2023-01-16T17:32:44;2.60;;;1.77;;
20417;SDS011;10368;51.436;6.774;2023-01-16T17:35:13;3.30;;;1.83;;
20417;SDS011;10368;51.436;6.774;2023-01-16T17:37:41;4.97;;;3.27;;
20417;SDS011;10368;51.436;6.774;2023-01-16T17:40:09;3.13;;;2.43;;
20417;SDS011;10368;51.436;6.774;2023-01-16T17:42:36;3.90;;;2.97;;
20417;SDS011;10368;51.436;6.774;2023-01-16T17:45:25;3.77;;;3.40;;
20417;SDS011;10368;51.436;6.774;2023-01-16T17:48:12;7.27;;;5.17;;
20417;SDS011;10368;51.436;6.774;2023-01-16T17:50:39;8.37;;;5.77;;
20417;SDS011;10368;51.436;6.774;2023-01-16T17:53:11;7.03;;;5.17;;
20417;SDS011;10368;51.436;6.774;2023-01-16T17:55:39;8.10;;;5.23;;
20417;SDS011;10368;51.436;6.774;2023-01-16T17:58:20;6.47;;;5.40;;
20417;SDS011;10368;51.436;6.774;2023-01-16T18:01:01;7.20;;;5.30;;
20417;SDS011;10368;51.436;6.774;2023-01-16T18:03:30;8.43;;;6.43;;
20417;SDS011;10368;51.436;6.774;2023-01-16T18:06:04;6.60;;;5.53;;
20417;SDS011;10368;51.436;6.774;2023-01-16T18:08:31;6.83;;;5.40;;
20417;SDS011;10368;51.436;6.774;2023-01-16T18:10:59;5.70;;;5.10;;
20417;SDS011;10368;51.436;6.774;2023-01-16T18:13:47;6.90;;;5.57;;
20417;SDS011;10368;51.436;6.774;2023-01-16T18:16:33;7.20;;;5.10;;
20417;SDS011;10368;51.436;6.774;2023-01-16T18:19:20;5.73;;;4.67;;
20417;SDS011;10368;51.436;6.774;2023-01-16T18:21:47;5.07;;;4.37;;
20417;SDS011;10368;51.436;6.774;2023-01-16T18:24:33;6.13;;;5.00;;
20417;SDS011;10368;51.436;6.774;2023-01-16T18:27:01;9.17;;;6.67;;
20417;SDS011;10368;51.436;6.774;2023-01-16T18:29:29;7.10;;;5.53;;